Time;durP1;ratioP1;P1;durP2;ratioP2;P2;SDS_P1;SDS_P2;PMS_P1;PMS_P2;Temp;Humidity;BMP_temperature;BMP_pressure;BME280_temperature;BME280_humidity;BME280_pressure;Samples;Min_cycle;Max_cycle;Signal;HPM_P1;HPM_P2
2021/06/29 00:00:05;;;;;;;10.30;7.72;;;;;;;16.31;100.00;95740.31;1003396;29;20025;-69
2021/06/29 00:00:35;;;;;;;11.38;7.55;;;;;;;16.25;100.00;95737.78;1007461;29;20040;-70
2021/06/29 00:01:06;;;;;;;10.40;7.57;;;;;;;16.33;100.00;95743.44;1014046;29;20602;-69
2021/06/29 00:01:36;;;;;;;11.40;8.00;;;;;;;16.33;100.00;95741.59;1019426;29;20409;-70
2021/06/29 00:02:06;;;;;;;8.68;7.88;;;;;;;16.33;100.00;95741.59;1021143;29;20442;-69
2021/06/29 00:02:37;;;;;;;11.68;8.13;;;;;;;16.32;100.00;95747.97;1022332;29;20528;-69
2021/06/29 00:03:07;;;;;;;9.35;8.55;;;;;;;16.26;100.00;95744.66;1025580;28;20643;-69
2021/06/29 00:03:38;;;;;;;8.20;6.95;;;;;;;16.25;100.00;95744.94;1026555;28;20023;-70
2021/06/29 00:04:08;;;;;;;8.75;7.85;;;;;;;16.27;100.00;95748.88;1019129;29;20034;-69
2021/06/29 00:04:39;;;;;;;11.05;9.88;;;;;;;16.30;100.00;95746.69;1018721;29;20016;-69
2021/06/29 00:05:10;;;;;;;9.77;8.75;;;;;;;16.36;100.00;95753.44;1014790;29;20474;-69
2021/06/29 00:05:40;;;;;;;9.40;7.32;;;;;;;16.34;100.00;95742.38;1008360;29;20024;-69
2021/06/29 00:06:11;;;;;;;10.32;8.13;;;;;;;16.34;100.00;95750.31;1007090;29;20032;-70
2021/06/29 00:06:41;;;;;;;9.90;7.78;;;;;;;16.29;100.00;95747.78;1007394;29;20627;-70
2021/06/29 00:07:12;;;;;;;8.90;7.82;;;;;;;16.18;100.00;95737.41;1014510;29;20032;-69
2021/06/29 00:07:45;;;;;;;8.32;7.53;;;;;;;16.21;100.00;95750.06;1022138;29;20023;-70
2021/06/29 00:08:16;;;;;;;9.50;8.43;;;;;;;16.24;100.00;95746.81;1022719;29;20102;-70
2021/06/29 00:08:46;;;;;;;9.95;8.65;;;;;;;16.26;100.00;95742.00;1018620;29;20370;-70
2021/06/29 00:09:16;;;;;;;11.10;8.95;;;;;;;16.28;100.00;95752.28;1014549;29;20051;-69
2021/06/29 00:09:47;;;;;;;9.50;8.70;;;;;;;16.32;100.00;95753.25;1018511;29;20487;-68
2021/06/29 00:10:17;;;;;;;9.38;8.40;;;;;;;16.29;100.00;95753.06;1013233;29;20020;-70
2021/06/29 00:10:48;;;;;;;8.68;7.85;;;;;;;16.27;100.00;95756.03;1012328;29;20020;-69
2021/06/29 00:11:18;;;;;;;9.05;8.15;;;;;;;16.29;100.00;95747.78;1011019;29;20025;-70
2021/06/29 00:11:49;;;;;;;9.77;7.78;;;;;;;16.30;100.00;95750.16;1010568;29;20081;-69
2021/06/29 00:12:19;;;;;;;8.80;7.90;;;;;;;16.21;100.00;95739.47;1009192;29;20033;-70
2021/06/29 00:12:51;;;;;;;8.23;7.40;;;;;;;16.23;100.00;95747.09;1007064;29;20020;-69
2021/06/29 00:13:22;;;;;;;9.18;8.27;;;;;;;16.25;100.00;95748.38;1006858;29;20117;-69
2021/06/29 00:13:52;;;;;;;10.27;9.05;;;;;;;16.29;100.00;95745.13;1006808;29;20502;-70
2021/06/29 00:14:23;;;;;;;9.60;8.60;;;;;;;16.29;100.00;95747.78;1007310;29;20074;-69
2021/06/29 00:14:53;;;;;;;8.55;7.75;;;;;;;16.29;100.00;95747.78;1011254;29;20099;-69
2021/06/29 00:15:27;;;;;;;11.48;8.52;;;;;;;16.21;100.00;95728.88;1011019;29;20028;-69
2021/06/29 00:15:58;;;;;;;9.77;8.65;;;;;;;16.29;100.00;95750.44;1010414;29;20066;-70
2021/06/29 00:16:28;;;;;;;10.80;7.40;;;;;;;16.28;100.00;95747.00;1011028;29;20028;-70
2021/06/29 00:16:58;;;;;;;9.93;8.43;;;;;;;16.23;100.00;95739.16;1011029;29;20029;-69
2021/06/29 00:17:29;;;;;;;8.18;7.38;;;;;;;16.19;100.00;95744.25;1010079;29;20035;-70
2021/06/29 00:18:00;;;;;;;8.10;7.32;;;;;;;16.18;100.00;95742.69;1014678;29;20088;-70
2021/06/29 00:18:30;;;;;;;8.88;8.05;;;;;;;16.13;100.00;95734.88;1018208;29;20377;-69
2021/06/29 00:19:01;;;;;;;8.40;7.60;;;;;;;16.17;100.00;95745.66;1018657;29;20056;-70
2021/06/29 00:19:31;;;;;;;9.32;8.10;;;;;;;16.16;100.00;95744.88;1018361;29;20023;-69
2021/06/29 00:20:02;;;;;;;10.60;7.70;;;;;;;16.15;100.00;95737.22;1018588;29;20034;-71
2021/06/29 00:20:33;;;;;;;9.75;7.55;;;;;;;16.14;100.00;95735.66;1015210;29;20080;-69
2021/06/29 00:21:06;;;;;;;9.68;8.60;;;;;;;16.21;100.00;95742.13;1014282;29;20122;-70
2021/06/29 00:21:37;;;;;;;9.43;8.32;;;;;;;16.20;100.00;95734.47;1014759;29;20105;-70
2021/06/29 00:22:07;;;;;;;10.95;7.85;;;;;;;16.22;100.00;95740.25;1014702;29;20024;-69
2021/06/29 00:22:38;;;;;;;11.60;8.27;;;;;;;16.16;100.00;95726.34;1011162;29;20089;-67
2021/06/29 00:23:09;;;;;;;9.30;8.38;;;;;;;16.15;100.00;95729.28;1017952;29;20470;-69
2021/06/29 00:23:42;;;;;;;9.32;8.45;;;;;;;16.22;100.00;95737.59;1014841;29;20063;-70
2021/06/29 00:24:12;;;;;;;12.70;8.82;;;;;;;16.26;100.00;95742.00;1017919;29;20118;-69
2021/06/29 00:24:42;;;;;;;11.25;9.07;;;;;;;16.21;100.00;95728.88;1014694;29;20029;-70
2021/06/29 00:25:13;;;;;;;9.25;8.35;;;;;;;16.29;100.00;95742.47;1018463;29;20439;-68
2021/06/29 00:25:44;;;;;;;9.82;8.57;;;;;;;16.26;100.00;95739.38;1018297;29;20019;-70
2021/06/29 00:26:14;;;;;;;10.15;8.65;;;;;;;16.25;100.00;95740.44;1016970;29;20020;-69
2021/06/29 00:26:45;;;;;;;8.65;7.95;;;;;;;16.27;100.00;95735.63;1022617;29;20462;-69
2021/06/29 00:27:15;;;;;;;9.18;8.30;;;;;;;16.27;100.00;95735.63;1015419;29;20028;-68
2021/06/29 00:27:46;;;;;;;10.90;7.70;;;;;;;16.23;100.00;95737.31;1008072;29;20484;-69
2021/06/29 00:28:16;;;;;;;9.27;8.23;;;;;;;16.25;100.00;95737.78;1015063;29;20482;-69
2021/06/29 00:28:47;;;;;;;9.65;8.63;;;;;;;16.23;100.00;95729.38;1014591;29;20028;-69
2021/06/29 00:29:18;;;;;;;8.55;7.55;;;;;;;16.22;100.00;95733.06;1018119;29;20453;-66
2021/06/29 00:29:49;;;;;;;9.48;8.02;;;;;;;16.22;100.00;95738.38;1011243;29;20108;-69
2021/06/29 00:30:20;;;;;;;9.40;8.50;;;;;;;16.19;100.00;95733.66;1018494;29;20024;-69
2021/06/29 00:30:50;;;;;;;10.05;8.60;;;;;;;16.23;100.00;95741.81;1010560;29;20039;-69
2021/06/29 00:31:21;;;;;;;10.23;8.65;;;;;;;16.21;100.00;95744.75;1011525;29;20460;-69
2021/06/29 00:31:51;;;;;;;9.77;8.85;;;;;;;16.22;100.00;95748.19;1014861;29;20102;-70
2021/06/29 00:32:22;;;;;;;10.63;9.63;;;;;;;16.21;100.00;95741.34;1013774;29;20402;-69
2021/06/29 00:32:52;;;;;;;11.52;8.48;;;;;;;16.22;100.00;95742.88;1012230;29;20067;-69
2021/06/29 00:33:23;;;;;;;10.13;9.13;;;;;;;16.22;100.00;95735.72;1018368;29;20024;-69
2021/06/29 00:33:54;;;;;;;11.40;9.05;;;;;;;16.22;100.00;95743.66;1014551;29;20028;-69
2021/06/29 00:34:24;;;;;;;10.65;8.38;;;;;;;16.24;100.00;95741.53;1017777;29;20031;-67
2021/06/29 00:34:55;;;;;;;8.90;8.07;;;;;;;16.23;100.00;95733.84;1010464;29;20432;-70
2021/06/29 00:35:25;;;;;;;8.55;7.80;;;;;;;16.22;100.00;95742.88;1018622;29;20020;-69
2021/06/29 00:35:56;;;;;;;10.15;8.15;;;;;;;16.21;100.00;95736.03;1010830;29;20123;-70
2021/06/29 00:36:26;;;;;;;10.40;8.25;;;;;;;16.19;100.00;95741.63;1008698;29;20029;-70
2021/06/29 00:36:57;;;;;;;10.02;9.02;;;;;;;16.18;100.00;95734.75;1014631;29;20020;-69
2021/06/29 00:37:28;;;;;;;11.27;9.68;;;;;;;16.13;100.00;95729.59;1006213;29;20017;-69
2021/06/29 00:37:58;;;;;;;8.95;8.05;;;;;;;16.14;100.00;95733.03;1010466;29;20117;-70
2021/06/29 00:38:29;;;;;;;9.90;8.63;;;;;;;16.21;100.00;95747.41;1010480;29;20052;-69
2021/06/29 00:38:59;;;;;;;10.35;8.77;;;;;;;16.20;100.00;95751.16;1014691;29;20030;-69
2021/06/29 00:39:36;;;;;;;9.93;8.85;;;;;;;16.21;100.00;95747.41;1006579;29;20029;-69
2021/06/29 00:40:10;;;;;;;10.32;9.10;;;;;;;16.20;100.00;95753.00;1012662;29;20029;-69
2021/06/29 00:40:40;;;;;;;9.68;8.73;;;;;;;16.15;100.00;95747.81;1010899;29;20021;-69
2021/06/29 00:41:11;;;;;;;11.23;8.70;;;;;;;16.15;100.00;95753.09;1011144;29;20092;-69
2021/06/29 00:41:41;;;;;;;9.32;7.70;;;;;;;16.10;100.00;95751.34;1013886;29;20028;-69
2021/06/29 00:42:12;;;;;;;9.60;8.45;;;;;;;16.11;100.00;95742.31;1014002;29;20450;-69
2021/06/29 00:42:42;;;;;;;10.73;9.63;;;;;;;16.14;100.00;95751.56;1012833;29;20029;-69
2021/06/29 00:43:13;;;;;;;11.13;10.07;;;;;;;16.18;100.00;95753.28;1018214;29;20064;-69
2021/06/29 00:43:47;;;;;;;10.73;9.63;;;;;;;16.19;100.00;95759.38;1014875;29;20032;-69
2021/06/29 00:44:22;;;;;;;11.07;9.27;;;;;;;16.18;100.00;95761.25;1018989;29;20024;-69
2021/06/29 00:44:52;;;;;;;9.55;8.55;;;;;;;16.18;100.00;95763.88;1016212;29;20052;-70
2021/06/29 00:45:23;;;;;;;10.95;9.85;;;;;;;16.20;100.00;95767.03;1011221;29;20028;-69
2021/06/29 00:45:53;;;;;;;10.07;9.05;;;;;;;16.21;100.00;95765.16;1015029;29;20043;-70
2021/06/29 00:46:24;;;;;;;10.38;9.20;;;;;;;16.18;100.00;95761.25;1011050;29;20443;-69
2021/06/29 00:46:55;;;;;;;9.80;8.80;;;;;;;16.19;100.00;95772.59;1022516;29;20091;-69
2021/06/29 00:47:26;;;;;;;11.20;9.05;;;;;;;16.19;100.00;95769.97;1014319;29;20032;-69
2021/06/29 00:47:56;;;;;;;9.15;8.35;;;;;;;16.16;100.00;95767.91;1027020;28;20031;-69
2021/06/29 00:48:27;;;;;;;10.90;9.73;;;;;;;16.20;100.00;95772.31;1018724;29;20062;-69
2021/06/29 00:48:57;;;;;;;10.75;9.68;;;;;;;16.16;100.00;95765.25;1014812;29;20032;-68
2021/06/29 00:49:28;;;;;;;7.95;7.15;;;;;;;16.16;100.00;95773.19;1014981;29;20526;-69
2021/06/29 00:49:58;;;;;;;9.27;8.27;;;;;;;16.17;100.00;95772.13;1016694;29;20095;-69
2021/06/29 00:50:29;;;;;;;12.02;9.02;;;;;;;16.20;100.00;95777.63;1010991;29;20028;-69
2021/06/29 00:51:05;;;;;;;10.25;9.25;;;;;;;16.24;100.00;95777.81;1018893;29;20016;-69
2021/06/29 00:51:35;;;;;;;9.70;8.20;;;;;;;16.15;100.00;95779.59;1006056;29;20527;-70
2021/06/29 00:52:10;;;;;;;11.07;8.35;;;;;;;16.18;100.00;95786.94;1008261;29;20071;-70
2021/06/29 00:52:40;;;;;;;9.18;8.30;;;;;;;16.14;100.00;95792.03;1005729;29;20021;-69
2021/06/29 00:53:11;;;;;;;9.82;8.63;;;;;;;16.16;100.00;95787.25;1016154;29;20025;-69
2021/06/29 00:53:42;;;;;;;13.75;9.85;;;;;;;16.18;100.00;95794.88;1015589;29;20038;-69
2021/06/29 00:54:13;;;;;;;8.82;7.97;;;;;;;16.15;100.00;95790.94;1015900;29;20059;-69
2021/06/29 00:54:44;;;;;;;13.13;8.75;;;;;;;16.16;100.00;95789.88;1015923;29;20020;-68
2021/06/29 00:55:15;;;;;;;9.55;7.70;;;;;;;16.19;100.00;95791.91;1014704;29;20055;-70
2021/06/29 00:55:45;;;;;;;12.98;9.02;;;;;;;16.22;100.00;95793.19;1015779;29;20092;-69
2021/06/29 00:56:19;;;;;;;9.65;8.68;;;;;;;16.18;100.00;95803.59;1015836;29;20047;-69
2021/06/29 00:56:49;;;;;;;8.93;7.88;;;;;;;16.18;100.00;95803.59;1015617;29;20027;-69
2021/06/29 00:57:20;;;;;;;11.15;8.13;;;;;;;16.20;100.00;95795.38;1022068;29;20061;-69
2021/06/29 00:57:51;;;;;;;9.13;8.23;;;;;;;16.20;100.00;95792.72;1019740;29;20454;-69
2021/06/29 00:58:21;;;;;;;9.48;8.20;;;;;;;16.20;100.00;95798.81;1014493;29;20565;-69
2021/06/29 00:58:52;;;;;;;10.45;9.40;;;;;;;16.22;100.00;95793.97;1019555;29;20070;-69
2021/06/29 00:59:22;;;;;;;9.90;8.90;;;;;;;16.25;100.00;95796.03;1008863;29;20037;-69
2021/06/29 00:59:53;;;;;;;10.93;9.85;;;;;;;16.27;100.00;95788.59;1011940;29;20561;-70
2021/06/29 01:00:24;;;;;;;11.45;9.40;;;;;;;16.25;100.00;95789.97;1011781;29;20032;-69
2021/06/29 01:00:55;;;;;;;9.10;8.30;;;;;;;16.22;100.00;95779.97;1011895;29;20452;-69
2021/06/29 01:01:25;;;;;;;8.98;7.63;;;;;;;16.17;100.00;95788.03;1011871;29;20479;-68
2021/06/29 01:01:56;;;;;;;8.77;7.85;;;;;;;16.08;100.00;95777.34;1011566;29;20032;-69
2021/06/29 01:02:26;;;;;;;11.82;8.60;;;;;;;16.14;100.00;95784.09;1008171;29;20365;-70
2021/06/29 01:02:57;;;;;;;11.25;8.15;;;;;;;16.16;100.00;95784.59;1008317;29;20044;-69
2021/06/29 01:03:27;;;;;;;9.60;8.65;;;;;;;16.16;100.00;95779.31;1011868;29;20609;-69
2021/06/29 01:03:58;;;;;;;9.60;8.48;;;;;;;16.14;100.00;95784.09;1023478;29;20026;-69
2021/06/29 01:04:28;;;;;;;9.90;8.00;;;;;;;16.10;100.00;95777.84;1023872;29;20395;-69
2021/06/29 01:04:59;;;;;;;8.80;7.80;;;;;;;16.13;100.00;95779.88;1019861;29;20032;-70
2021/06/29 01:05:29;;;;;;;9.25;8.38;;;;;;;16.07;100.00;95773.13;1019589;29;20055;-69
2021/06/29 01:06:00;;;;;;;8.57;7.55;;;;;;;16.14;100.00;95781.44;1019881;29;20034;-69
2021/06/29 01:06:30;;;;;;;10.07;9.07;;;;;;;16.16;100.00;95787.25;1023757;29;20023;-68
2021/06/29 01:07:01;;;;;;;9.45;8.45;;;;;;;16.16;100.00;95778.50;1017895;29;20024;-68
2021/06/29 01:07:31;;;;;;;11.50;8.85;;;;;;;16.16;100.00;95781.94;1019305;29;20123;-69
2021/06/29 01:08:02;;;;;;;9.65;8.73;;;;;;;16.15;100.00;95771.63;1015694;29;20119;-69
2021/06/29 01:08:33;;;;;;;11.20;9.23;;;;;;;16.14;100.00;95772.72;1011916;29;20024;-69
2021/06/29 01:09:03;;;;;;;10.60;8.93;;;;;;;16.15;100.00;95775.06;1010627;29;20024;-69
2021/06/29 01:09:37;;;;;;;9.27;8.35;;;;;;;16.14;100.00;95772.72;1012022;29;20040;-69
2021/06/29 01:10:08;;;;;;;8.88;7.95;;;;;;;16.10;100.00;95772.53;1015613;29;20036;-68
2021/06/29 01:10:42;;;;;;;10.48;8.35;;;;;;;16.05;100.00;95759.41;1019703;29;20410;-69
2021/06/29 01:11:13;;;;;;;9.30;8.23;;;;;;;16.09;100.00;95764.88;1015564;29;20040;-70
2021/06/29 01:11:43;;;;;;;9.68;8.15;;;;;;;16.10;100.00;95766.47;1023638;29;20023;-69
2021/06/29 01:12:14;;;;;;;9.88;8.93;;;;;;;16.09;100.00;95763.00;1007868;29;20057;-69
2021/06/29 01:12:47;;;;;;;11.02;8.77;;;;;;;16.07;100.00;95757.25;1018418;29;20027;-69
2021/06/29 01:13:43;;;;;;;9.50;8.32;;;;;;;16.08;100.00;95764.09;1007971;29;20035;-69
2021/06/29 01:14:15;;;;;;;8.63;7.68;;;;;;;16.04;100.00;95763.13;1011675;29;20020;-69
2021/06/29 01:14:46;;;;;;;9.60;8.05;;;;;;;15.99;100.00;95753.41;1019896;29;20031;-68
2021/06/29 01:15:23;;;;;;;9.45;8.43;;;;;;;16.04;100.00;95757.84;1012010;29;20033;-69
2021/06/29 01:15:56;;;;;;;9.80;8.73;;;;;;;16.02;100.00;95757.34;1020455;29;20487;-69
2021/06/29 01:16:26;;;;;;;8.93;8.05;;;;;;;16.03;100.00;95756.28;1019502;29;20433;-68
2021/06/29 01:16:57;;;;;;;12.63;9.35;;;;;;;16.05;100.00;95758.63;1012183;29;20036;-69
2021/06/29 01:17:28;;;;;;;10.80;8.88;;;;;;;16.00;100.00;95767.44;1018841;29;20080;-70
2021/06/29 01:18:01;;;;;;;9.38;8.48;;;;;;;16.00;100.00;95762.16;1011895;29;20074;-70
2021/06/29 01:18:32;;;;;;;8.77;7.97;;;;;;;15.97;100.00;95762.75;1019545;29;20421;-69
2021/06/29 01:19:03;;;;;;;10.65;9.40;;;;;;;15.98;100.00;95764.31;1015740;29;20319;-70
2021/06/29 01:20:14;;;;;;;11.60;8.15;;;;;;;15.89;100.00;95744.91;1015487;29;20572;-70
2021/06/29 01:20:44;;;;;;;10.63;9.52;;;;;;;15.92;100.00;95750.38;1019858;29;20553;-69
2021/06/29 01:21:16;;;;;;;11.07;8.50;;;;;;;15.90;100.00;95747.28;1019590;29;20122;-69
2021/06/29 01:21:52;;;;;;;10.23;9.00;;;;;;;15.90;100.00;95751.78;1011573;29;20542;-69
2021/06/29 01:22:25;;;;;;;9.43;8.52;;;;;;;15.91;100.00;95745.41;1015754;29;20020;-70
2021/06/29 01:22:59;;;;;;;12.32;7.80;;;;;;;15.91;100.00;95748.06;1011861;29;20025;-70
2021/06/29 01:23:30;;;;;;;10.40;8.57;;;;;;;15.89;100.00;95740.38;1019170;29;20023;-70
2021/06/29 01:24:06;;;;;;;12.18;8.93;;;;;;;15.89;100.00;95737.75;1015775;29;20405;-69
2021/06/29 01:24:36;;;;;;;9.70;8.80;;;;;;;15.89;100.00;95743.03;1011745;29;20037;-69
2021/06/29 01:25:10;;;;;;;11.43;9.05;;;;;;;15.86;100.00;95732.25;1015303;29;20030;-69
2021/06/29 01:25:43;;;;;;;10.20;9.20;;;;;;;15.89;100.00;95750.97;1011821;29;20110;-67
2021/06/29 01:26:20;;;;;;;11.82;9.05;;;;;;;15.90;100.00;95741.97;1011931;29;20017;-69
2021/06/29 01:27:09;;;;;;;9.20;8.30;;;;;;;15.89;100.00;95750.19;1013553;29;20032;-70
2021/06/29 01:29:43;;;;;;;9.75;8.00;;;;;;;15.92;100.00;95757.53;1007233;29;20286;-69
2021/06/29 01:31:30;;;;;;;10.18;9.18;;;;;;;15.94;100.00;95761.47;1015683;29;20021;-69
2021/06/29 01:32:00;;;;;;;9.15;8.20;;;;;;;15.86;100.00;95758.72;1013590;29;20389;-70
2021/06/29 01:32:31;;;;;;;10.80;7.57;;;;;;;15.91;100.00;95763.94;1019570;29;20066;-70
2021/06/29 01:33:01;;;;;;;8.57;7.68;;;;;;;15.85;100.00;95752.66;1011711;29;20128;-71
2021/06/29 01:33:32;;;;;;;7.90;6.93;;;;;;;15.92;100.00;95758.31;1015301;29;20115;-69
2021/06/29 01:34:08;;;;;;;8.95;8.07;;;;;;;15.92;100.00;95763.63;1007879;29;20062;-69
2021/06/29 01:34:38;;;;;;;7.90;7.13;;;;;;;15.93;100.00;95762.56;1019236;29;20036;-69
2021/06/29 01:35:09;;;;;;;8.02;6.63;;;;;;;15.93;100.00;95761.78;1019446;29;20553;-70
2021/06/29 01:35:43;;;;;;;7.53;6.57;;;;;;;15.94;100.00;95763.34;1011811;29;20056;-71
2021/06/29 01:36:20;;;;;;;8.73;7.82;;;;;;;15.93;100.00;95761.78;1007893;29;20071;-70
2021/06/29 01:36:50;;;;;;;9.45;8.18;;;;;;;15.97;100.00;95768.81;1004034;29;20106;-70
2021/06/29 01:37:22;;;;;;;9.25;8.30;;;;;;;15.97;100.00;95765.41;1002827;29;20119;-69
2021/06/29 01:37:53;;;;;;;9.95;8.95;;;;;;;15.99;100.00;95757.94;1015530;29;20027;-68
2021/06/29 01:38:26;;;;;;;9.85;8.85;;;;;;;16.00;100.00;95768.22;1007752;29;20040;-69
2021/06/29 01:38:57;;;;;;;8.82;7.90;;;;;;;15.97;100.00;95768.03;1012912;29;20110;-69
2021/06/29 01:39:27;;;;;;;8.40;7.43;;;;;;;15.72;100.00;95727.75;1011534;29;20127;-69
2021/06/29 01:40:14;;;;;;;8.43;7.63;;;;;;;15.93;100.00;95767.84;1017585;29;20064;-69
2021/06/29 01:40:44;;;;;;;8.60;7.45;;;;;;;15.91;100.00;95763.94;1019376;29;20035;-70
2021/06/29 01:41:16;;;;;;;7.00;6.40;;;;;;;15.92;100.00;95768.13;1015458;29;20032;-69
2021/06/29 01:41:47;;;;;;;7.68;6.88;;;;;;;15.91;100.00;95762.06;1019399;29;20017;-70
2021/06/29 01:42:17;;;;;;;9.05;7.70;;;;;;;15.91;100.00;95764.72;1011556;29;20032;-69
2021/06/29 01:42:54;;;;;;;9.18;7.35;;;;;;;15.91;100.00;95770.00;1016054;29;20067;-69
2021/06/29 01:43:31;;;;;;;8.85;8.05;;;;;;;15.92;100.00;95770.78;1031408;28;20014;-70
2021/06/29 01:44:34;;;;;;;8.10;7.40;;;;;;;15.92;100.00;95762.84;1019579;29;20038;-69
2021/06/29 01:45:07;;;;;;;9.70;8.45;;;;;;;15.91;100.00;95767.34;1022668;28;20020;-67
2021/06/29 01:45:37;;;;;;;9.02;7.47;;;;;;;15.92;100.00;95771.56;1019294;29;20106;-69
2021/06/29 01:46:08;;;;;;;8.38;6.95;;;;;;;15.88;100.00;95767.16;1016691;29;20056;-67
2021/06/29 01:46:41;;;;;;;9.30;7.60;;;;;;;15.91;100.00;95769.22;1018964;29;20103;-70
2021/06/29 01:47:21;;;;;;;8.70;7.80;;;;;;;15.90;100.00;95767.66;1010310;29;20542;-69
2021/06/29 01:47:55;;;;;;;8.10;7.40;;;;;;;15.87;100.00;95758.44;1015134;29;20100;-69
2021/06/29 01:48:25;;;;;;;9.95;8.10;;;;;;;15.89;100.00;95755.50;1015743;29;20039;-70
2021/06/29 01:48:56;;;;;;;8.95;7.65;;;;;;;15.90;100.00;95768.44;1014224;29;20027;-68
2021/06/29 01:49:27;;;;;;;8.20;7.45;;;;;;;15.89;100.00;95756.25;1017137;29;20031;-70
2021/06/29 01:50:06;;;;;;;10.30;8.20;;;;;;;15.88;100.00;95767.16;1013039;29;20021;-70
2021/06/29 01:50:37;;;;;;;9.10;8.20;;;;;;;15.89;100.00;95764.22;1018239;29;20008;-69
2021/06/29 01:51:10;;;;;;;9.38;8.30;;;;;;;15.88;100.00;95760.00;1018327;29;20485;-70
2021/06/29 01:51:40;;;;;;;9.20;8.30;;;;;;;15.88;100.00;95764.50;1014960;29;20084;-69
2021/06/29 01:52:11;;;;;;;10.32;8.88;;;;;;;15.87;100.00;95769.03;1019264;29;20103;-69
2021/06/29 01:52:44;;;;;;;9.23;8.27;;;;;;;15.85;100.00;95759.81;1011354;29;20479;-70
2021/06/29 01:53:15;;;;;;;8.98;8.15;;;;;;;15.87;100.00;95769.03;1015339;29;20024;-69
2021/06/29 01:53:47;;;;;;;11.27;9.02;;;;;;;15.86;100.00;95767.47;1007578;29;20025;-69
2021/06/29 01:54:17;;;;;;;9.93;8.70;;;;;;;15.88;100.00;95769.81;1013438;29;20020;-70
2021/06/29 01:54:48;;;;;;;10.70;7.68;;;;;;;15.83;100.00;95768.06;1011538;29;20028;-70
2021/06/29 01:55:18;;;;;;;8.90;8.05;;;;;;;15.87;100.00;95765.59;1015887;29;20058;-70
2021/06/29 01:55:49;;;;;;;10.10;7.55;;;;;;;15.87;100.00;95763.75;1009595;29;20441;-70
2021/06/29 01:56:33;;;;;;;13.57;8.02;;;;;;;15.83;100.00;95759.31;1019136;29;20036;-69
2021/06/29 01:57:04;;;;;;;8.88;7.95;;;;;;;15.68;100.00;95741.88;1006897;29;20017;-68
2021/06/29 01:57:36;;;;;;;9.65;7.43;;;;;;;15.84;100.00;95763.53;1017802;29;20020;-69
2021/06/29 01:58:07;;;;;;;9.02;7.93;;;;;;;15.87;100.00;95768.25;1017774;29;20031;-69
2021/06/29 01:58:37;;;;;;;8.25;7.43;;;;;;;15.88;100.00;95765.28;1018600;29;20122;-69
2021/06/29 01:59:10;;;;;;;8.50;7.80;;;;;;;15.88;100.00;95764.50;1017622;29;20492;-70
2021/06/29 01:59:44;;;;;;;10.93;8.00;;;;;;;15.88;100.00;95767.16;1012395;29;20115;-68
2021/06/29 02:00:15;;;;;;;9.68;8.27;;;;;;;15.87;100.00;95766.38;1018937;29;20026;-71
2021/06/29 02:00:46;;;;;;;10.68;8.07;;;;;;;15.88;100.00;95764.50;1018270;29;20063;-69
2021/06/29 02:01:16;;;;;;;8.13;7.32;;;;;;;15.86;100.00;95766.66;1018926;29;20020;-70
2021/06/29 02:01:47;;;;;;;11.98;8.35;;;;;;;15.89;100.00;95771.38;1019235;29;20232;-70
2021/06/29 02:02:17;;;;;;;8.85;7.88;;;;;;;15.89;100.00;95768.72;1018505;29;20028;-70
2021/06/29 02:02:48;;;;;;;8.73;7.63;;;;;;;15.86;100.00;95756.06;1025793;28;20110;-70
2021/06/29 02:03:19;;;;;;;13.30;8.38;;;;;;;15.90;100.00;95772.94;1006880;29;20061;-70
2021/06/29 02:03:49;;;;;;;9.25;8.23;;;;;;;15.90;100.00;95765.78;1022825;29;20152;-70
2021/06/29 02:04:24;;;;;;;9.30;8.38;;;;;;;15.84;100.00;95761.69;1014158;29;20024;-70
2021/06/29 02:04:54;;;;;;;10.55;8.98;;;;;;;15.90;100.00;95779.03;1015201;29;20438;-69
2021/06/29 02:05:27;;;;;;;10.45;9.07;;;;;;;15.93;100.00;95775.78;1007277;29;20120;-69
2021/06/29 02:05:58;;;;;;;8.52;7.65;;;;;;;15.94;100.00;95776.56;1010909;29;20052;-70
2021/06/29 02:06:28;;;;;;;9.65;8.60;;;;;;;15.96;100.00;95779.69;1011192;29;20513;-70
2021/06/29 02:06:59;;;;;;;9.48;8.45;;;;;;;15.95;100.00;95781.56;1015080;29;20056;-69
2021/06/29 02:07:29;;;;;;;9.43;7.85;;;;;;;15.92;100.00;95778.72;1008019;29;20032;-69
2021/06/29 02:08:00;;;;;;;10.25;7.82;;;;;;;15.93;100.00;95783.72;1017200;29;20111;-69
2021/06/29 02:08:30;;;;;;;7.82;7.03;;;;;;;15.91;100.00;95785.09;1016251;29;20084;-69
2021/06/29 02:09:01;;;;;;;9.88;7.60;;;;;;;15.84;100.00;95774.13;1011396;29;20437;-69
2021/06/29 02:09:31;;;;;;;8.15;7.40;;;;;;;15.91;100.00;95793.81;1007090;29;20125;-69
2021/06/29 02:10:03;;;;;;;8.50;7.55;;;;;;;15.91;100.00;95790.38;1015557;29;20020;-70
2021/06/29 02:10:34;;;;;;;8.18;7.38;;;;;;;15.91;100.00;95791.16;1008101;29;20990;-66
2021/06/29 02:11:04;;;;;;;9.48;7.63;;;;;;;15.91;100.00;95785.09;1019147;29;20062;-69
2021/06/29 02:11:38;;;;;;;9.20;6.95;;;;;;;15.91;100.00;95793.03;1015364;29;20024;-69
2021/06/29 02:12:12;;;;;;;8.43;7.55;;;;;;;15.89;100.00;95789.88;1007461;29;20028;-69
2021/06/29 02:12:44;;;;;;;8.73;7.88;;;;;;;15.88;100.00;95793.63;1013050;29;20403;-67
2021/06/29 02:13:14;;;;;;;8.50;7.70;;;;;;;15.85;100.00;95797.63;1015211;29;20024;-69
2021/06/29 02:13:45;;;;;;;8.23;7.38;;;;;;;15.86;100.00;95796.56;1019073;29;20024;-70
2021/06/29 02:14:18;;;;;;;12.98;8.25;;;;;;;15.88;100.00;95796.28;1016191;29;20016;-69
2021/06/29 02:14:49;;;;;;;8.27;7.40;;;;;;;15.86;100.00;95793.13;1011297;29;20075;-70
2021/06/29 02:15:20;;;;;;;9.77;7.93;;;;;;;15.88;100.00;95790.97;1011519;29;20139;-69
2021/06/29 02:15:51;;;;;;;9.43;8.40;;;;;;;15.88;100.00;95797.06;1012367;29;20024;-70
2021/06/29 02:16:21;;;;;;;8.45;7.45;;;;;;;15.88;100.00;95799.69;1011112;29;20026;-69
2021/06/29 02:16:51;;;;;;;10.63;8.25;;;;;;;15.88;100.00;95807.63;1003566;29;20553;-70
2021/06/29 02:17:22;;;;;;;9.85;7.78;;;;;;;15.81;100.00;95787.94;1010660;29;20564;-70
2021/06/29 02:17:52;;;;;;;12.98;8.40;;;;;;;15.88;100.00;95796.28;1010687;29;20310;-68
2021/06/29 02:18:23;;;;;;;9.32;8.43;;;;;;;15.79;100.00;95793.50;1011429;29;20128;-69
2021/06/29 02:18:53;;;;;;;8.63;7.78;;;;;;;15.85;100.00;95802.16;1015030;29;20057;-70
2021/06/29 02:19:24;;;;;;;9.68;8.18;;;;;;;15.86;100.00;95799.22;1015149;29;20040;-69
2021/06/29 02:19:55;;;;;;;9.57;8.07;;;;;;;15.76;100.00;95789.63;1006504;29;20567;-70
2021/06/29 02:20:25;;;;;;;8.77;7.88;;;;;;;15.86;100.00;95801.06;1011321;29;20024;-69
2021/06/29 02:20:56;;;;;;;12.45;7.88;;;;;;;15.84;100.00;95797.94;1011265;29;20024;-69
2021/06/29 02:21:27;;;;;;;8.43;7.63;;;;;;;15.88;100.00;95806.84;1010601;29;20025;-69
2021/06/29 02:21:57;;;;;;;8.70;7.80;;;;;;;15.88;100.00;95802.34;1007399;29;20487;-70
2021/06/29 02:22:28;;;;;;;8.95;7.65;;;;;;;15.88;100.00;95801.56;1011452;29;20036;-70
2021/06/29 02:22:58;;;;;;;8.73;7.60;;;;;;;15.88;100.00;95812.16;1006994;29;20548;-68
2021/06/29 02:23:29;;;;;;;11.43;7.72;;;;;;;15.87;100.00;95806.06;1011303;29;20028;-70
2021/06/29 02:23:59;;;;;;;7.90;7.18;;;;;;;15.85;100.00;95802.16;1015310;29;20612;-70
2021/06/29 02:24:30;;;;;;;8.10;7.28;;;;;;;15.87;100.00;95800.78;1011113;29;20073;-69
2021/06/29 02:25:00;;;;;;;8.63;7.53;;;;;;;15.83;100.00;95799.00;1009339;29;20643;-69
2021/06/29 02:25:31;;;;;;;7.47;6.70;;;;;;;15.89;100.00;95808.41;1015127;29;20043;-69
2021/06/29 02:26:01;;;;;;;10.68;7.38;;;;;;;15.86;100.00;95798.41;1011198;29;20033;-69
2021/06/29 02:26:32;;;;;;;9.77;6.60;;;;;;;15.85;100.00;95802.94;1017616;29;20118;-69
2021/06/29 02:27:03;;;;;;;9.20;7.68;;;;;;;15.82;100.00;95792.94;1022722;29;20059;-69
2021/06/29 02:27:33;;;;;;;8.27;7.00;;;;;;;15.86;100.00;95799.22;1010483;29;20029;-70
2021/06/29 02:28:04;;;;;;;8.38;7.57;;;;;;;15.84;100.00;95803.22;1011297;29;20040;-69
2021/06/29 02:28:34;;;;;;;8.82;7.93;;;;;;;15.83;100.00;95799.81;1003693;29;20104;-69
2021/06/29 02:29:05;;;;;;;8.13;7.32;;;;;;;15.84;100.00;95797.94;1007478;29;20461;-69
2021/06/29 02:29:41;;;;;;;9.32;7.85;;;;;;;15.81;100.00;95795.88;1003544;29;20499;-69
2021/06/29 02:30:12;;;;;;;8.07;7.38;;;;;;;15.83;100.00;95801.66;1010342;29;20069;-70